METAR Data
IDs: Format: Raw Decoded Include TAF

Data at: 0220 UTC 12 May 2021

KGEZ 120153Z AUTO 36008KT 10SM CLR 11/00 A3033 RMK AO2 SLP272 T01060000
KGEZ 120053Z AUTO 36006KT 10SM CLR 12/M01 A3030 RMK AO2 SLP262 T01171006
KGEZ 112353Z AUTO 02009KT 10SM CLR 13/M01 A3028 RMK AO2 SLP255 T01281006 10156 20128 53008
KGEZ 112253Z AUTO 03011KT 10SM CLR 14/M01 A3026 RMK AO2 SLP248 T01391011
KGEZ 112153Z AUTO 01008KT 10SM CLR 14/00 A3026 RMK AO2 SLP248 T01440000
KGEZ 112053Z AUTO 03007G16KT 10SM FEW060 15/00 A3026 RMK AO2 SLP246 T01500000 56011
KGEZ 111953Z AUTO 35012G20KT 10SM CLR 15/M01 A3026 RMK AO2 SLP247 T01501006
KGEZ 111853Z AUTO 02011KT 10SM CLR 15/00 A3027 RMK AO2 SLP251 T01500000
KGEZ 111753Z AUTO 36008G16KT 10SM CLR 14/M01 A3029 RMK AO2 SLP257 60000 T01391011 10150 20083 50000
KGEZ 111653Z AUTO 01010G18KT 10SM CLR 13/M01 A3030 RMK AO2 SLP262 T01331006
KGEZ 111553Z AUTO 02009KT 350V050 10SM CLR 13/01 A3030 RMK AO2 SLP259 T01330006
KGEZ 111453Z AUTO 03011KT 10SM BKN090 12/01 A3029 RMK AO2 SLP257 60000 T01170011 51015
KGEZ 111353Z AUTO 03007KT 10SM BKN075 OVC090 10/01 A3028 RMK AO2 RAE1254 SLP253 P0000 T01000011
KGEZ 111253Z AUTO 02007KT 10SM -RA SCT050 OVC060 09/01 A3026 RMK AO2 RAB45 SLP248 P0000 T00890011
KGEZ 111153Z AUTO 01010KT 10SM BKN060 OVC095 09/01 A3024 RMK AO2 SLP242 T00890006 10106 20083 51021
KGEZ 111053Z AUTO 03008KT 10SM OVC046 09/04 A3022 RMK AO2 SLP234 T00890039
KGEZ 110953Z AUTO 36007KT 10SM BKN041 OVC050 09/04 A3021 RMK AO2 SLP230 T00940044
KGEZ 110853Z AUTO 02007KT 10SM BKN065 OVC100 10/06 A3018 RMK AO2 SLP220 T01000056 53007
KGEZ 110753Z AUTO 34006KT 10SM OVC065 10/07 A3017 RMK AO2 SLP217 T01000067
KGEZ 110653Z AUTO 02004KT 10SM BKN060 10/06 A3016 RMK AO2 SLP212 T01000061
KGEZ 110553Z AUTO 03005KT 10SM BKN070 11/06 A3016 RMK AO2 SLP214 T01060056 10150 20100 51004
KGEZ 110453Z AUTO 01006KT 10SM FEW065 11/06 A3016 RMK AO2 SLP213 T01060056 401670022
KGEZ 110353Z AUTO 36006KT 10SM FEW065 BKN110 12/06 A3016 RMK AO2 SLP212 T01170056
KGEZ 110253Z AUTO 23004KT 10SM OVC070 12/06 A3015 RMK AO2 SLP210 T01220061 53013
KGEZ 110153Z AUTO 21004KT 10SM CLR 13/06 A3013 RMK AO2 SLP203 T01280061
KGEZ 110053Z AUTO 21004KT 10SM CLR 14/06 A3011 RMK AO2 SLP197 T01390056
KGEZ 102353Z AUTO 21004KT 10SM CLR 15/05 A3011 RMK AO2 SLP198 T01500050 10167 20150 58002
KGEZ 102253Z AUTO 22003KT 10SM CLR 16/03 A3012 RMK AO2 SLP200 T01560033
KGEZ 102153Z AUTO 20005KT 10SM CLR 16/03 A3011 RMK AO2 SLP200 T01610033
KGEZ 102053Z AUTO VRB03KT 10SM CLR 16/02 A3012 RMK AO2 SLP200 T01610022 56008
KGEZ 101953Z AUTO VRB04KT 10SM SCT050 BKN065 17/03 A3012 RMK AO2 SLP201 T01670028
KGEZ 101853Z AUTO 30004KT 10SM FEW055 16/02 A3013 RMK AO2 SLP205 T01610022
KGEZ 101753Z AUTO VRB05KT 10SM SCT048 BKN100 15/03 A3014 RMK AO2 SLP209 T01500028 10161 20056 53004
KGEZ 101653Z AUTO 00000KT 10SM CLR 14/02 A3013 RMK AO2 SLP204 T01440022
KGEZ 101553Z AUTO 00000KT 10SM CLR 14/03 A3014 RMK AO2 SLP208 T01390028
KGEZ 101453Z AUTO 00000KT 10SM CLR 12/03 A3013 RMK AO2 SLP205 T01220033 51007